createdAt,value
2022-11-23T00:08:56.421Z,96405.44
2022-11-23T00:39:00.705Z,96425.34
2022-11-23T01:09:06.420Z,96437.72
2022-11-23T01:39:11.981Z,96452.84
2022-11-23T02:09:17.412Z,96471.59
2022-11-23T02:39:27.643Z,96467.66
2022-11-23T03:09:32.710Z,96469.66
2022-11-23T03:39:37.130Z,96488.81
2022-11-23T04:09:41.279Z,96477.59
2022-11-23T04:39:46.469Z,96477.81
2022-11-23T05:09:50.793Z,96491.00
2022-11-23T05:39:54.953Z,96506.41
2022-11-23T06:09:59.210Z,96509.53
2022-11-23T06:40:03.460Z,96511.84
2022-11-23T07:10:09.268Z,96536.59
2022-11-23T07:40:13.757Z,96553.84
2022-11-23T08:10:18.139Z,96578.63
2022-11-23T08:40:25.696Z,96595.47
2022-11-23T09:10:30.298Z,96574.78
2022-11-23T09:40:36.881Z,96593.16
2022-11-23T10:10:44.388Z,96587.13
2022-11-23T10:40:58.355Z,96589.91
2022-11-23T11:11:04.190Z,96549.97
2022-11-23T11:41:10.222Z,96511.94
2022-11-23T12:11:14.599Z,96495.94
2022-11-23T12:41:30.877Z,96488.56
2022-11-23T13:11:46.445Z,96464.31
2022-11-23T13:42:02.419Z,96408.63
2022-11-23T14:12:15.926Z,96381.50
2022-11-23T14:42:22.677Z,96396.50
2022-11-23T15:12:27.118Z,96395.81
2022-11-23T15:42:31.328Z,96400.56
2022-11-23T16:12:48.688Z,96440.03
2022-11-23T16:42:54.157Z,96480.59
2022-11-23T17:12:58.566Z,96529.97
2022-11-23T17:43:02.768Z,96577.06
2022-11-23T18:13:06.948Z,96613.97
2022-11-23T18:43:11.085Z,96653.50
2022-11-23T19:13:15.616Z,96698.78
2022-11-23T19:43:20.135Z,96748.69
2022-11-23T20:13:24.516Z,96770.69
2022-11-23T20:43:28.824Z,96826.75
2022-11-23T21:13:50.597Z,96879.41
2022-11-23T21:43:56.419Z,96919.56
2022-11-23T22:14:02.040Z,96957.72
2022-11-23T22:44:07.005Z,96998.28
2022-11-23T23:14:11.266Z,97035.69
2022-11-23T23:44:15.476Z,97066.53
